createdAt,value
2023-04-25T00:01:27.078Z,97766.86
2023-04-25T00:06:30.367Z,97766.13
2023-04-25T00:11:31.351Z,97768.00
2023-04-25T00:16:34.389Z,97770.40
2023-04-25T00:21:35.890Z,97767.92
2023-04-25T00:26:37.273Z,97769.34
2023-04-25T00:31:38.336Z,97768.92
2023-04-25T00:36:39.903Z,97771.41
2023-04-25T00:41:41.198Z,97770.63
2023-04-25T00:46:42.959Z,97769.67
2023-04-25T00:51:45.115Z,97773.45
2023-04-25T00:56:46.226Z,97772.64
2023-04-25T01:01:47.601Z,97770.33
2023-04-25T01:06:48.863Z,97776.94
2023-04-25T01:11:50.134Z,97781.45
2023-04-25T01:16:51.294Z,97787.16
2023-04-25T01:21:52.418Z,97785.16
2023-04-25T01:26:56.646Z,97792.20
2023-04-25T01:31:59.727Z,97795.82
2023-04-25T01:37:03.987Z,97802.55
2023-04-25T01:42:05.112Z,97803.46
2023-04-25T01:47:06.326Z,97806.07
2023-04-25T01:52:07.474Z,97807.80
2023-04-25T01:57:08.748Z,97807.52
2023-04-25T02:02:11.026Z,97816.79
2023-04-25T02:07:12.271Z,97818.05
2023-04-25T02:12:22.090Z,97820.49
2023-04-25T02:17:46.675Z,97822.27
2023-04-25T02:22:48.148Z,97821.79
2023-04-25T02:27:49.196Z,97817.39
2023-04-25T02:32:50.219Z,97818.75
2023-04-25T02:37:51.582Z,97821.34
2023-04-25T02:42:52.573Z,97824.09
2023-04-25T02:47:53.647Z,97823.09
2023-04-25T02:52:55.222Z,97817.80
2023-04-25T02:58:00.796Z,97816.14
2023-04-25T03:03:12.851Z,97815.79
2023-04-25T03:08:13.946Z,97818.19
2023-04-25T03:13:14.925Z,97817.15
2023-04-25T03:18:17.118Z,97818.02
2023-04-25T03:23:18.125Z,97819.73
2023-04-25T03:28:20.668Z,97822.98
2023-04-25T03:33:22.659Z,97828.27
2023-04-25T03:38:23.764Z,97829.63
2023-04-25T03:43:24.990Z,97827.77
2023-04-25T03:48:31.011Z,97829.83
2023-04-25T03:53:33.547Z,97834.09
2023-04-25T03:58:54.682Z,97835.80
2023-04-25T04:03:57.996Z,97840.58
2023-04-25T04:09:00.497Z,97838.17
2023-04-25T04:14:01.740Z,97843.77
2023-04-25T04:19:03.735Z,97847.83
2023-04-25T04:24:06.126Z,97847.50
2023-04-25T04:29:21.322Z,97852.25
2023-04-25T04:34:34.134Z,97854.27
2023-04-25T04:39:36.008Z,97857.64
2023-04-25T04:44:47.731Z,97858.79
2023-04-25T04:50:18.613Z,97861.16
2023-04-25T04:55:38.553Z,97859.77
2023-04-25T05:00:47.256Z,97860.39
2023-04-25T05:06:06.931Z,97858.29
2023-04-25T05:11:34.103Z,97856.52
2023-04-25T05:17:06.898Z,97860.89
2023-04-25T05:22:13.776Z,97857.80
2023-04-25T05:27:42.432Z,97860.83
2023-04-25T05:32:57.097Z,97858.91
2023-04-25T05:37:58.579Z,97862.57
2023-04-25T05:43:15.810Z,97866.23
2023-04-25T05:48:26.182Z,97872.42
2023-04-25T05:53:45.068Z,97867.67
2023-04-25T05:58:47.819Z,97866.11
2023-04-25T06:03:49.827Z,97869.79
2023-04-25T06:08:52.064Z,97877.21
2023-04-25T06:13:53.196Z,97875.59
2023-04-25T06:18:54.549Z,97878.58
2023-04-25T06:23:55.622Z,97878.66
2023-04-25T06:28:58.483Z,97877.76
2023-04-25T06:33:59.826Z,97876.30
2023-04-25T06:39:01.369Z,97876.45
2023-04-25T06:44:02.833Z,97877.08
2023-04-25T06:49:10.241Z,97872.92
2023-04-25T06:54:11.718Z,97875.19
2023-04-25T06:59:18.116Z,97875.56
2023-04-25T07:04:21.152Z,97876.58
2023-04-25T07:09:28.670Z,97870.66
2023-04-25T07:14:30.188Z,97871.79
2023-04-25T07:19:32.281Z,97875.70
2023-04-25T07:24:34.533Z,97873.30
2023-04-25T07:29:37.364Z,97873.20
2023-04-25T07:34:39.048Z,97875.00
2023-04-25T07:39:40.379Z,97877.30
2023-04-25T07:44:42.632Z,97875.34
2023-04-25T07:49:45.724Z,97872.54
2023-04-25T07:54:47.566Z,97868.77
2023-04-25T07:59:51.591Z,97871.65
2023-04-25T08:04:53.381Z,97869.77
2023-04-25T08:09:55.290Z,97876.33
2023-04-25T08:15:04.456Z,97876.42
2023-04-25T08:20:09.172Z,97877.13
2023-04-25T08:25:10.487Z,97872.95
2023-04-25T08:30:13.029Z,97872.83
2023-04-25T08:35:14.864Z,97874.70
2023-04-25T08:40:16.789Z,97876.10
2023-04-25T08:45:28.152Z,97872.98
2023-04-25T08:50:30.565Z,97878.33
2023-04-25T08:55:32.241Z,97878.16
2023-04-25T09:00:33.804Z,97877.64
2023-04-25T09:05:35.801Z,97872.54
2023-04-25T09:10:37.359Z,97873.06
2023-04-25T09:15:56.158Z,97876.99
2023-04-25T09:21:14.924Z,97878.52
2023-04-25T09:26:20.460Z,97880.98
2023-04-25T09:31:25.574Z,97881.52
2023-04-25T09:36:31.055Z,97883.40
2023-04-25T09:41:59.379Z,97883.59
2023-04-25T09:47:00.591Z,97884.35
2023-04-25T09:52:03.231Z,97891.57
2023-04-25T09:57:14.136Z,97892.91
2023-04-25T10:02:23.876Z,97892.09
2023-04-25T10:07:31.159Z,97888.38
2023-04-25T10:12:36.334Z,97883.83
2023-04-25T10:17:37.472Z,97884.64
2023-04-25T10:22:42.935Z,97889.52
2023-04-25T10:27:44.601Z,97886.67
2023-04-25T10:32:47.499Z,97885.21
2023-04-25T10:38:04.345Z,97883.06
2023-04-25T10:43:44.596Z,97879.95
2023-04-25T10:48:50.755Z,97880.40
2023-04-25T10:53:54.897Z,97883.79
2023-04-25T10:59:19.619Z,97881.25
2023-04-25T11:04:36.882Z,97883.84
2023-04-25T11:09:40.783Z,97876.45
2023-04-25T11:14:42.027Z,97874.89
2023-04-25T11:19:43.133Z,97876.83
2023-04-25T11:24:44.202Z,97880.10
2023-04-25T11:29:48.073Z,97887.77
2023-04-25T11:34:49.093Z,97885.35
2023-04-25T11:39:50.157Z,97883.09
2023-04-25T11:44:51.739Z,97883.16
2023-04-25T11:49:53.908Z,97888.67
2023-04-25T11:54:56.520Z,97881.24
2023-04-25T12:00:08.923Z,97886.96
2023-04-25T12:05:30.393Z,97883.70
2023-04-25T12:10:32.906Z,97876.91
2023-04-25T12:15:34.205Z,97876.14
2023-04-25T12:20:35.784Z,97872.41
2023-04-25T12:25:45.320Z,97878.05
2023-04-25T12:31:05.758Z,97874.69
2023-04-25T12:36:12.560Z,97875.25
2023-04-25T12:41:13.542Z,97873.55
2023-04-25T12:46:14.636Z,97873.86
2023-04-25T12:51:21.275Z,97871.40
2023-04-25T12:56:24.537Z,97863.80
2023-04-25T13:01:27.018Z,97857.66
2023-04-25T13:06:30.258Z,97854.81
2023-04-25T13:11:31.867Z,97853.30
2023-04-25T13:16:33.165Z,97851.29
2023-04-25T13:21:34.195Z,97846.92
2023-04-25T13:26:35.279Z,97828.05
2023-04-25T13:31:36.266Z,97843.52
2023-04-25T13:36:37.305Z,97843.81
2023-04-25T13:41:38.326Z,97853.35
2023-04-25T13:51:43.775Z,97843.61
2023-04-25T13:56:45.997Z,97843.39
2023-04-25T14:01:47.035Z,97848.56
2023-04-25T14:06:48.283Z,97852.55
2023-04-25T14:11:49.408Z,97856.41
2023-04-25T14:16:51.973Z,97855.34
2023-04-25T14:21:52.910Z,97851.31
2023-04-25T14:26:53.928Z,97852.90
2023-04-25T14:31:54.955Z,97857.04
2023-04-25T14:36:55.959Z,97856.15
2023-04-25T14:41:57.091Z,97851.90
2023-04-25T14:46:58.370Z,97849.67
2023-04-25T14:52:00.317Z,97854.45
2023-04-25T14:57:01.593Z,97861.14
2023-04-25T15:02:02.933Z,97861.41
2023-04-25T15:07:05.552Z,97855.96
2023-04-25T15:12:07.248Z,97856.79
2023-04-25T15:17:08.278Z,97856.14
2023-04-25T15:22:09.821Z,97861.10
2023-04-25T15:27:11.185Z,97858.48
2023-04-25T15:32:12.197Z,97863.73
2023-04-25T15:37:13.470Z,97868.60
2023-04-25T15:42:14.835Z,97878.83
2023-04-25T15:47:15.899Z,97878.63
2023-04-25T15:52:21.162Z,97878.23
2023-04-25T15:57:22.896Z,97878.23
2023-04-25T16:02:24.283Z,97877.16
2023-04-25T16:07:25.579Z,97879.27
2023-04-25T16:12:28.026Z,97875.55
2023-04-25T16:17:29.509Z,97880.36
2023-04-25T16:22:31.307Z,97877.24
2023-04-25T16:27:34.450Z,97886.71
2023-04-25T16:32:35.895Z,97892.41
2023-04-25T16:37:36.947Z,97895.77
2023-04-25T16:42:38.007Z,97896.61
2023-04-25T16:47:39.141Z,97891.71
2023-04-25T16:52:40.544Z,97895.52
2023-04-25T16:57:41.722Z,97899.70
2023-04-25T17:02:43.052Z,97909.83
2023-04-25T17:07:44.168Z,97920.85
2023-04-25T17:12:46.795Z,97926.29
2023-04-25T17:17:47.915Z,97933.11
2023-04-25T17:22:49.057Z,97933.67
2023-04-25T17:27:50.523Z,97938.48
2023-04-25T17:32:52.062Z,97941.60
2023-04-25T17:37:53.106Z,97943.63
2023-04-25T17:42:54.289Z,97953.92
2023-04-25T17:47:55.357Z,97962.55
2023-04-25T17:52:56.630Z,97973.16
2023-04-25T17:57:57.614Z,97977.41
2023-04-25T18:02:58.706Z,97984.22
2023-04-25T18:08:01.300Z,97988.17
2023-04-25T18:13:02.716Z,97998.27
2023-04-25T18:18:14.034Z,98007.11
2023-04-25T18:23:15.899Z,98019.69
2023-04-25T18:28:18.230Z,98025.06
2023-04-25T18:33:21.376Z,98033.65
2023-04-25T18:38:34.955Z,98050.22
2023-04-25T18:43:37.246Z,98060.27
2023-04-25T18:48:38.763Z,98061.28
2023-04-25T18:53:40.641Z,98070.33
2023-04-25T18:58:41.760Z,98077.15
2023-04-25T19:03:43.937Z,98088.58
2023-04-25T19:08:45.233Z,98095.73
2023-04-25T19:13:47.042Z,98097.09
2023-04-25T19:18:48.068Z,98096.75
2023-04-25T19:23:49.053Z,98102.55
2023-04-25T19:29:07.513Z,98111.76
2023-04-25T19:34:08.766Z,98116.87
2023-04-25T19:39:10.122Z,98122.66
2023-04-25T19:44:11.423Z,98125.20
2023-04-25T19:49:12.448Z,98129.81
2023-04-25T19:54:13.504Z,98136.29
2023-04-25T19:59:17.215Z,98139.70
2023-04-25T20:04:18.300Z,98147.20
2023-04-25T20:09:22.520Z,98152.31
2023-04-25T20:14:23.670Z,98152.99
2023-04-25T20:19:24.767Z,98149.06
2023-04-25T20:24:25.892Z,98152.98
2023-04-25T20:29:26.955Z,98158.96
2023-04-25T20:34:30.584Z,98169.17
2023-04-25T20:39:32.703Z,98173.10
2023-04-25T20:44:33.833Z,98181.27
2023-04-25T20:49:35.960Z,98181.63
2023-04-25T20:54:37.810Z,98188.61
2023-04-25T20:59:38.859Z,98193.23
2023-04-25T21:04:40.060Z,98195.60
2023-04-25T21:09:44.857Z,98200.55
2023-04-25T21:14:51.453Z,98202.92
2023-04-25T21:19:52.728Z,98205.66
2023-04-25T21:24:56.500Z,98212.98
2023-04-25T21:29:57.772Z,98216.38
2023-04-25T21:34:58.877Z,98217.69
2023-04-25T21:40:00.794Z,98220.73
2023-04-25T21:45:05.242Z,98221.73
2023-04-25T21:50:26.840Z,98233.44
2023-04-25T21:55:27.923Z,98231.86
2023-04-25T22:00:31.308Z,98234.02
2023-04-25T22:05:33.592Z,98225.80
2023-04-25T22:10:34.857Z,98229.69
2023-04-25T22:15:38.035Z,98243.08
2023-04-25T22:20:39.352Z,98254.59
2023-04-25T22:25:41.523Z,98245.04
2023-04-25T22:30:45.436Z,98252.16
2023-04-25T22:35:46.910Z,98258.23
2023-04-25T22:40:48.174Z,98263.08
2023-04-25T22:45:49.487Z,98261.75
2023-04-25T22:50:50.927Z,98271.16
2023-04-25T22:55:56.746Z,98272.29
2023-04-25T23:00:58.272Z,98276.52
2023-04-25T23:06:00.055Z,98282.45
2023-04-25T23:11:07.241Z,98282.13
2023-04-25T23:16:10.154Z,98286.77
2023-04-25T23:21:11.630Z,98292.27
2023-04-25T23:26:13.429Z,98292.63
2023-04-25T23:31:15.333Z,98292.13
2023-04-25T23:36:20.484Z,98298.05
2023-04-25T23:41:24.725Z,98299.75
2023-04-25T23:46:30.998Z,98303.63
2023-04-25T23:51:34.036Z,98306.15
2023-04-25T23:56:35.458Z,98307.61
